createdAt,value
2023-04-01T00:01:42.751Z,13.50
2023-04-01T00:04:09.314Z,13.90
2023-04-01T00:06:35.897Z,13.90
2023-04-01T00:09:02.470Z,13.60
2023-04-01T00:11:29.007Z,13.90
2023-04-01T00:13:55.551Z,13.50
2023-04-01T00:16:22.776Z,17.00
2023-04-01T00:18:51.401Z,15.40
2023-04-01T00:21:19.547Z,16.40
2023-04-01T00:23:46.118Z,19.90
2023-04-01T00:26:13.113Z,22.70
2023-04-01T00:28:40.503Z,23.00
2023-04-01T00:31:10.289Z,22.80
2023-04-01T00:33:37.800Z,23.10
2023-04-01T00:36:23.200Z,19.70
2023-04-01T00:38:50.682Z,18.10
2023-04-01T00:41:19.503Z,17.80
2023-04-01T00:43:49.740Z,17.10
2023-04-01T00:46:17.184Z,17.80
2023-04-01T00:48:54.164Z,18.50
2023-04-01T00:51:29.673Z,16.40
2023-04-01T00:53:58.924Z,16.80
2023-04-01T00:56:33.415Z,16.70
2023-04-01T00:59:07.656Z,18.60
2023-04-01T01:01:36.536Z,16.50
2023-04-01T01:04:03.628Z,15.90
2023-04-01T01:06:43.608Z,16.80
2023-04-01T01:10:01.457Z,19.50
2023-04-01T01:12:50.790Z,19.80
2023-04-01T01:15:25.662Z,21.50
2023-04-01T01:18:10.227Z,22.90
2023-04-01T01:20:55.221Z,22.70
2023-04-01T01:23:37.395Z,21.30
2023-04-01T01:26:31.629Z,20.20
2023-04-01T01:28:58.146Z,21.50
2023-04-01T01:31:46.897Z,21.40
2023-04-01T01:34:30.819Z,22.60
2023-04-01T01:37:02.524Z,21.30
2023-04-01T01:39:32.393Z,19.20
2023-04-01T01:42:04.148Z,19.60
2023-04-01T01:44:33.531Z,17.40
2023-04-01T01:47:01.094Z,15.40
2023-04-01T01:49:31.445Z,16.90
2023-04-01T01:51:58.688Z,14.20
2023-04-01T01:54:25.245Z,14.40
2023-04-01T01:57:02.146Z,13.00
2023-04-01T01:59:30.729Z,12.50
2023-04-01T02:01:58.271Z,13.40
2023-04-01T02:04:25.443Z,12.10
2023-04-01T02:07:03.536Z,10.70
2023-04-01T02:09:30.727Z,11.30
2023-04-01T02:12:00.740Z,10.90
2023-04-01T02:14:32.318Z,10.80
2023-04-01T02:17:03.344Z,10.60
2023-04-01T02:19:38.638Z,10.80
2023-04-01T02:22:09.836Z,10.00
2023-04-01T02:24:38.791Z,10.40
2023-04-01T02:27:05.571Z,9.00
2023-04-01T02:29:32.575Z,9.20
2023-04-01T02:32:04.242Z,9.80
2023-04-01T02:34:30.726Z,13.10
2023-04-01T02:36:58.251Z,11.20
2023-04-01T02:39:25.120Z,12.70
2023-04-01T02:41:51.512Z,12.80
2023-04-01T02:44:17.977Z,10.70
2023-04-01T02:46:45.015Z,10.10
2023-04-01T02:49:12.161Z,11.10
2023-04-01T02:51:38.642Z,11.80
2023-04-01T02:54:05.211Z,9.70
2023-04-01T02:56:31.643Z,9.60
2023-04-01T02:58:58.196Z,11.90
2023-04-01T03:01:24.931Z,11.50
2023-04-01T03:03:52.112Z,11.00
2023-04-01T03:06:19.053Z,11.20
2023-04-01T03:08:46.156Z,10.70
2023-04-01T03:11:12.954Z,11.50
2023-04-01T03:13:39.550Z,11.50
2023-04-01T03:16:07.573Z,11.00
2023-04-01T03:18:34.255Z,11.10
2023-04-01T03:21:21.824Z,10.20
2023-04-01T03:23:48.386Z,9.80
2023-04-01T03:26:15.734Z,9.00
2023-04-01T03:28:42.322Z,8.80
2023-04-01T03:31:09.164Z,8.50
2023-04-01T03:33:39.588Z,7.50
2023-04-01T03:36:06.737Z,8.00
2023-04-01T03:38:35.006Z,9.30
2023-04-01T03:41:01.849Z,10.50
2023-04-01T03:43:28.672Z,9.00
2023-04-01T03:45:56.245Z,8.20
2023-04-01T03:48:22.906Z,8.40
2023-04-01T03:50:49.752Z,8.00
2023-04-01T03:53:16.209Z,7.10
2023-04-01T03:55:42.725Z,7.10
2023-04-01T03:58:09.391Z,6.50
2023-04-01T04:00:35.879Z,6.60
2023-04-01T04:03:02.518Z,6.70
2023-04-01T04:05:29.329Z,7.40
2023-04-01T04:07:56.177Z,6.40
2023-04-01T04:10:22.677Z,6.70
2023-04-01T04:12:50.729Z,7.70
2023-04-01T04:15:17.345Z,15.10
2023-04-01T04:17:45.793Z,9.20
2023-04-01T04:20:12.727Z,11.30
2023-04-01T04:22:39.442Z,10.30
2023-04-01T04:25:06.667Z,14.10
2023-04-01T04:27:34.211Z,11.40
2023-04-01T04:30:00.795Z,13.60
2023-04-01T04:32:28.917Z,20.80
2023-04-01T04:34:58.198Z,16.90
2023-04-01T04:37:25.152Z,15.20
2023-04-01T04:39:51.705Z,16.20
2023-04-01T04:42:18.404Z,14.90
2023-04-01T04:44:45.023Z,23.90
2023-04-01T04:47:11.836Z,23.10
2023-04-01T04:49:38.626Z,16.50
2023-04-01T04:52:05.151Z,11.00
2023-04-01T04:54:31.715Z,11.00
2023-04-01T04:56:58.227Z,11.70
2023-04-01T04:59:25.022Z,16.50
2023-04-01T05:01:51.511Z,16.40
2023-04-01T05:04:18.176Z,16.10
2023-04-01T05:06:44.921Z,19.30
2023-04-01T05:09:11.565Z,17.70
2023-04-01T05:11:38.064Z,14.10
2023-04-01T05:14:04.516Z,15.20
2023-04-01T05:16:30.999Z,15.10
2023-04-01T05:18:57.841Z,12.40
2023-04-01T05:21:24.333Z,13.80
2023-04-01T05:23:50.823Z,16.60
2023-04-01T05:26:17.314Z,14.40
2023-04-01T05:28:43.796Z,10.80
2023-04-01T05:31:10.792Z,12.10
2023-04-01T05:33:37.409Z,11.10
2023-04-01T05:36:13.006Z,9.00
2023-04-01T05:38:40.347Z,7.10
2023-04-01T05:41:06.854Z,7.20
2023-04-01T05:43:33.327Z,6.90
2023-04-01T05:45:59.818Z,6.30
2023-04-01T05:48:26.279Z,5.50
2023-04-01T05:50:52.752Z,5.40
2023-04-01T05:53:19.726Z,6.20
2023-04-01T05:55:46.270Z,8.90
2023-04-01T05:58:12.977Z,10.30
2023-04-01T06:00:39.878Z,10.40
2023-04-01T06:03:06.591Z,9.20
2023-04-01T06:05:42.302Z,8.90
2023-04-01T06:08:19.715Z,9.70
2023-04-01T06:11:38.233Z,9.10
2023-04-01T06:14:16.960Z,12.50
2023-04-01T06:17:18.171Z,13.30
2023-04-01T06:20:22.075Z,13.10
2023-04-01T06:23:00.773Z,12.00
2023-04-01T06:25:45.951Z,11.40
2023-04-01T06:28:24.728Z,8.60
2023-04-01T06:31:07.528Z,7.30
2023-04-01T06:33:40.109Z,8.40
2023-04-01T06:36:43.605Z,6.40
2023-04-01T06:39:13.398Z,8.50
2023-04-01T06:41:39.886Z,8.40
2023-04-01T06:44:15.278Z,9.70
2023-04-01T06:46:56.214Z,9.60
2023-04-01T06:52:16.871Z,9.70
2023-04-01T06:54:48.536Z,9.40
2023-04-01T06:57:30.144Z,9.90
2023-04-01T06:59:59.951Z,8.80
2023-04-01T07:02:43.945Z,8.60
2023-04-01T07:05:13.008Z,8.30
2023-04-01T07:07:47.448Z,7.50
2023-04-01T07:10:19.178Z,7.50
2023-04-01T07:12:52.675Z,6.90
2023-04-01T07:16:17.948Z,4.70
2023-04-01T07:19:03.094Z,5.40
2023-04-01T07:21:49.744Z,5.40
2023-04-01T07:24:26.615Z,4.50
2023-04-01T07:26:57.964Z,3.70
2023-04-01T07:29:26.852Z,4.40
2023-04-01T07:32:17.864Z,4.30
2023-04-01T07:37:21.725Z,4.10
2023-04-01T07:40:05.289Z,3.80
2023-04-01T07:43:23.518Z,3.50
2023-04-01T07:46:17.136Z,3.20
2023-04-01T07:49:04.917Z,4.30
2023-04-01T07:51:56.410Z,3.00
2023-04-01T07:54:29.041Z,2.50
2023-04-01T07:57:16.866Z,2.80
2023-04-01T08:00:03.347Z,2.40
2023-04-01T08:03:07.077Z,1.80
2023-04-01T08:05:48.256Z,2.10
2023-04-01T08:08:22.928Z,2.00
2023-04-01T08:11:04.314Z,2.30
2023-04-01T08:13:43.240Z,1.60
2023-04-01T08:16:47.991Z,1.70
2023-04-01T08:19:23.287Z,1.30
2023-04-01T08:21:55.809Z,1.40
2023-04-01T08:24:44.374Z,1.40
2023-04-01T08:27:36.863Z,1.00
2023-04-01T08:30:03.421Z,1.40
2023-04-01T08:32:37.615Z,1.20
2023-04-01T08:35:34.824Z,1.10
2023-04-01T08:38:26.260Z,1.20
2023-04-01T08:41:00.375Z,1.30
2023-04-01T08:44:00.498Z,1.40
2023-04-01T08:46:47.793Z,1.50
2023-04-01T08:49:34.008Z,1.20
2023-04-01T08:52:19.108Z,1.50
2023-04-01T08:55:03.791Z,2.10
2023-04-01T08:57:42.229Z,1.20
2023-04-01T09:00:11.418Z,1.50
2023-04-01T09:03:20.400Z,2.20
2023-04-01T09:06:25.412Z,1.90
2023-04-01T09:09:01.067Z,1.90
2023-04-01T09:11:46.699Z,2.50
2023-04-01T09:14:28.676Z,1.70
2023-04-01T09:17:44.360Z,2.00
2023-04-01T09:20:29.253Z,2.10
2023-04-01T09:23:23.743Z,1.90
2023-04-01T09:26:24.382Z,1.90
2023-04-01T09:29:09.658Z,2.30
2023-04-01T09:31:58.366Z,1.80
2023-04-01T09:34:52.513Z,2.00
2023-04-01T09:37:21.331Z,1.70
2023-04-01T09:40:15.047Z,2.50
2023-04-01T09:43:17.593Z,4.50
2023-04-01T09:46:02.854Z,1.60
2023-04-01T09:48:58.641Z,2.10
2023-04-01T09:51:36.755Z,2.20
2023-04-01T09:54:12.005Z,2.40
2023-04-01T09:57:20.763Z,1.90
2023-04-01T09:59:50.668Z,2.00
2023-04-01T10:02:44.372Z,2.00
2023-04-01T10:05:23.202Z,2.00
2023-04-01T10:08:17.222Z,2.30
2023-04-01T10:10:52.884Z,2.70
2023-04-01T10:13:22.076Z,3.50
2023-04-01T10:16:00.796Z,3.00
2023-04-01T10:18:40.856Z,2.50
2023-04-01T10:21:32.240Z,2.20
2023-04-01T10:24:25.246Z,2.40
2023-04-01T10:27:13.416Z,3.60
2023-04-01T10:29:52.045Z,2.40
2023-04-01T10:32:50.011Z,2.20
2023-04-01T10:35:38.895Z,2.60
2023-04-01T10:38:26.819Z,2.20
2023-04-01T10:41:22.164Z,1.40
2023-04-01T10:44:20.847Z,1.10
2023-04-01T10:46:59.480Z,0.90
2023-04-01T10:50:11.087Z,1.60
2023-04-01T10:52:50.942Z,1.10
2023-04-01T10:55:50.705Z,1.40
2023-04-01T10:58:42.340Z,1.20
2023-04-01T11:02:03.999Z,1.60
2023-04-01T11:04:56.676Z,1.80
2023-04-01T11:08:02.866Z,1.40
2023-04-01T11:11:10.230Z,1.80
2023-04-01T11:14:18.097Z,2.20
2023-04-01T11:16:56.623Z,1.40
2023-04-01T11:19:47.916Z,1.40
2023-04-01T11:22:30.356Z,1.20
2023-04-01T11:25:02.854Z,1.40
2023-04-01T11:27:47.605Z,1.40
2023-04-01T11:30:29.629Z,1.50
2023-04-01T11:33:17.388Z,1.30
2023-04-01T11:36:19.633Z,1.80
2023-04-01T11:38:54.993Z,1.10
2023-04-01T11:41:44.843Z,1.00
2023-04-01T11:44:19.436Z,1.30
2023-04-01T11:47:11.606Z,1.40
2023-04-01T11:49:43.952Z,1.40
2023-04-01T11:52:42.981Z,1.50
2023-04-01T11:55:36.296Z,2.40
2023-04-01T11:58:12.373Z,1.40
2023-04-01T12:00:56.994Z,1.60
2023-04-01T12:04:01.526Z,1.80
2023-04-01T12:06:55.640Z,2.00
2023-04-01T12:09:34.749Z,1.70
2023-04-01T12:12:16.770Z,1.40
2023-04-01T12:15:01.510Z,2.30
2023-04-01T12:17:46.204Z,2.10
2023-04-01T12:20:12.872Z,2.90
2023-04-01T12:22:47.087Z,2.10
2023-04-01T12:25:22.872Z,2.60
2023-04-01T12:28:18.839Z,2.20
2023-04-01T12:30:55.281Z,2.30
2023-04-01T12:33:53.599Z,1.90
2023-04-01T12:36:57.751Z,3.10
2023-04-01T12:39:45.368Z,4.20
2023-04-01T12:42:52.873Z,3.50
2023-04-01T12:45:34.399Z,3.80
2023-04-01T12:48:28.971Z,3.80
2023-04-01T12:51:25.112Z,3.50
2023-04-01T12:54:33.467Z,3.30
2023-04-01T12:57:15.117Z,1.80
2023-04-01T13:00:05.929Z,2.10
2023-04-01T13:02:38.831Z,2.30
2023-04-01T13:05:41.176Z,1.80
2023-04-01T13:08:44.180Z,1.70
2023-04-01T13:11:42.609Z,1.50
2023-04-01T13:14:31.939Z,1.80
2023-04-01T13:17:16.665Z,1.50
2023-04-01T13:20:01.990Z,2.00
2023-04-01T13:22:58.209Z,1.50
2023-04-01T13:26:13.622Z,1.80
2023-04-01T13:28:48.843Z,1.70
2023-04-01T13:32:05.621Z,2.10
2023-04-01T13:34:35.023Z,1.60
2023-04-01T13:37:12.349Z,2.50
2023-04-01T13:39:41.507Z,2.60
2023-04-01T13:42:19.868Z,2.90
2023-04-01T13:45:15.660Z,3.00
2023-04-01T13:48:04.246Z,3.30
2023-04-01T13:50:55.448Z,3.00
2023-04-01T13:53:56.500Z,2.80
2023-04-01T13:56:39.380Z,1.60
2023-04-01T13:59:16.336Z,4.00
2023-04-01T14:01:49.145Z,3.70
2023-04-01T14:04:21.713Z,6.40
2023-04-01T14:07:10.192Z,5.30
2023-04-01T14:09:53.099Z,4.50
2023-04-01T14:12:31.072Z,3.20
2023-04-01T14:15:28.620Z,2.00
2023-04-01T14:18:07.120Z,1.90
2023-04-01T14:20:41.701Z,2.50
2023-04-01T14:23:46.339Z,2.10
2023-04-01T14:26:28.426Z,2.80
2023-04-01T14:29:23.745Z,2.70
2023-04-01T14:32:14.755Z,2.60
2023-04-01T14:37:41.847Z,1.80
2023-04-01T14:40:28.284Z,1.80
2023-04-01T14:43:07.053Z,2.80
2023-04-01T14:45:46.545Z,2.90
2023-04-01T14:48:45.513Z,1.90
2023-04-01T14:51:17.820Z,1.40
2023-04-01T14:54:07.122Z,1.20
2023-04-01T14:57:09.288Z,2.50
2023-04-01T14:59:42.131Z,2.70
2023-04-01T15:02:27.154Z,2.30
2023-04-01T15:05:08.853Z,3.70
2023-04-01T15:07:54.265Z,3.80
2023-04-01T15:10:45.851Z,3.80
2023-04-01T15:13:38.816Z,3.60
2023-04-01T15:16:30.493Z,4.40
2023-04-01T15:19:21.856Z,4.40
2023-04-01T15:22:06.726Z,2.40
2023-04-01T15:24:53.798Z,2.40
2023-04-01T15:27:42.993Z,3.00
2023-04-01T15:30:19.382Z,2.10
2023-04-01T15:33:01.330Z,2.10
2023-04-01T15:36:14.020Z,2.60
2023-04-01T15:39:13.228Z,2.40
2023-04-01T15:42:02.790Z,3.00
2023-04-01T15:44:47.756Z,3.80
2023-04-01T15:47:25.728Z,4.10
2023-04-01T15:49:56.597Z,2.90
2023-04-01T15:52:38.607Z,3.70
2023-04-01T15:55:40.620Z,4.00
2023-04-01T15:58:40.438Z,2.20
2023-04-01T16:01:17.694Z,1.70
2023-04-01T16:04:09.134Z,1.50
2023-04-01T16:06:54.280Z,2.30
2023-04-01T16:09:59.051Z,3.10
2023-04-01T16:12:25.634Z,7.10
2023-04-01T16:15:19.261Z,4.90
2023-04-01T16:17:45.783Z,3.40
2023-04-01T16:20:15.336Z,2.80
2023-04-01T16:22:54.803Z,2.80
2023-04-01T16:25:33.087Z,2.90
2023-04-01T16:28:27.145Z,3.00
2023-04-01T16:31:18.610Z,4.00
2023-04-01T16:34:16.014Z,6.80
2023-04-01T16:37:01.548Z,6.90
2023-04-01T16:39:46.700Z,5.60
2023-04-01T16:42:39.964Z,5.00
2023-04-01T16:45:09.599Z,4.60
2023-04-01T16:47:52.362Z,4.80
2023-04-01T16:50:23.515Z,5.60
2023-04-01T16:52:55.631Z,6.40
2023-04-01T16:55:25.996Z,9.00
2023-04-01T16:58:02.481Z,8.70
2023-04-01T17:00:40.652Z,8.70
2023-04-01T17:03:24.872Z,14.60
2023-04-01T17:06:34.938Z,11.20
2023-04-01T17:09:21.800Z,7.00
2023-04-01T17:12:26.488Z,10.10
2023-04-01T17:15:11.146Z,14.00
2023-04-01T17:17:59.841Z,25.50
2023-04-01T17:20:26.338Z,14.00
2023-04-01T17:23:01.164Z,10.70
2023-04-01T17:25:45.922Z,11.80
2023-04-01T17:28:29.719Z,10.90
2023-04-01T17:31:11.925Z,10.10
2023-04-01T17:33:51.799Z,9.50
2023-04-01T17:36:30.577Z,9.60
2023-04-01T17:39:19.141Z,8.30
2023-04-01T17:42:07.315Z,8.80
2023-04-01T17:45:05.224Z,11.60
2023-04-01T17:47:53.482Z,11.60
2023-04-01T17:50:24.750Z,10.10
2023-04-01T17:55:38.805Z,10.20
2023-04-01T17:58:20.710Z,20.50
2023-04-01T18:01:06.898Z,19.90
2023-04-01T18:04:07.560Z,32.50
2023-04-01T18:07:06.466Z,28.40
2023-04-01T18:10:02.246Z,24.80
2023-04-01T18:12:34.617Z,28.90
2023-04-01T18:15:11.984Z,19.40
2023-04-01T18:18:03.499Z,16.90
2023-04-01T18:20:49.001Z,20.90
2023-04-01T18:23:37.487Z,29.30
2023-04-01T18:26:11.259Z,6.90
2023-04-01T18:28:43.255Z,5.70
2023-04-01T18:31:12.693Z,12.30
2023-04-01T18:34:07.463Z,11.00
2023-04-01T18:36:45.195Z,7.20
2023-04-01T18:39:23.080Z,5.30
2023-04-01T18:42:29.466Z,9.00
2023-04-01T18:45:07.912Z,8.20
2023-04-01T18:48:05.028Z,13.70
2023-04-01T18:51:11.421Z,20.90
2023-04-01T18:53:53.714Z,14.70
2023-04-01T18:56:35.316Z,13.10
2023-04-01T18:59:23.708Z,12.40
2023-04-01T19:02:16.891Z,14.60
2023-04-01T19:04:51.744Z,18.90
2023-04-01T19:07:21.054Z,14.50
2023-04-01T19:09:49.661Z,15.90
2023-04-01T19:12:29.851Z,15.10
2023-04-01T19:15:23.609Z,12.50
2023-04-01T19:18:03.223Z,14.00
2023-04-01T19:20:47.558Z,18.60
2023-04-01T19:23:27.391Z,19.30
2023-04-01T19:26:00.872Z,12.30
2023-04-01T19:28:44.430Z,14.50
2023-04-01T19:31:29.609Z,11.90
2023-04-01T19:34:17.144Z,13.10
2023-04-01T19:36:57.579Z,12.00
